Lewistown, MT

10:54 PM MST on February 22, 2017 (GMT -0700)
3rd Ave S Lewistown | | Change Station
Active Advisory: Winter Weather Advisory

Elev 3927 ft 47.06 °N, 109.42 °W | Updated 18 seconds ago

Light Snow
Light Snow
28.8 °F
Feels Like 29 °F
N
2.0
Wind Variable Wind from ESE
Gusts 3.0 mph

Today
High -- | Low -- °F
--% Chance of Precip.
Yesterday
High -- | Low -- °F
Precip. -- in
Pressure 29.99 in
Visibility 9.0 miles
Clouds Overcast 600 ft
Windchill 29 °F
Dew Point 26 °F
Humidity 88%
Rainfall 0.25 in
Snow Depth Not available.
7:09 AM 5:53 PM
Waning Crescent, 12% visible
METAR KLWT 230454Z AUTO 11006KT 9SM -SN OVC006 M02/M03 A2990 RMK AO2 SNB45 CIG 005V010 SLP153 P0000 T10171033
Pressure 29.99 in
Visibility 9.0 miles
Clouds Overcast 600 ft
Windchill 29 °F
Dew Point 26 °F
Humidity 88%
Rainfall 0.25 in
Snow Depth Not available.
7:09 AM 5:53 PM
Waning Crescent, 12% visible
METAR KLWT 230454Z AUTO 11006KT 9SM -SN OVC006 M02/M03 A2990 RMK AO2 SNB45 CIG 005V010 SLP153 P0000 T10171033

Get Your Daily Forecast Email!

Thanks for signing up!

Be on the lookout for a verification email in your inbox.

You'll start receiving the daily forecast at 8 AM.

×

10-Day Weather Forecast

Almanac

Astronomy

Feb. 22, 2017 Rise Set
Actual Time
Civil Twilight
Nautical Twilight
Astronomical Twilight
Moon
Length of Visible Light
Length of Day
Tomorrow will be .
, % of the Moon is Illuminated

Today's Extremes

State Highs State Lows

Community

WunderPhotos

Upload Photos

1,962,540 photos uploaded!

WunderBlog® & News

Nearby

Air Quality

  Air Quality AQ Index Pollutant
Not available.

Snow Depth

Station Depth Elevation

Earthquake Activity

City Distance Mag. Time & Date
Minimum magnitude displayed is 2.5.

Coastal Water Temperatures

Place Temperature

Stations

Nearby Weather Stations

Station Location Temp. Windchill Dew Point Humidity Wind Precip. Elev Updated Type
                   

Watches & Warnings

Winter Weather Advisory
Issued: 9:30 PM MST Feb. 22, 2017 – National Weather Service

... Winter Weather Advisory now in effect until 11 am MST
Thursday...

* locations... White Sulphur Springs, Stanford, Chinook, Conrad,
Chester, Shelby, Havre, eastern Cascade County, Kings Hill
Pass, Big Sandy, Fort Benton, Lewistown, and Lewistown Divide.

* Timing... after a brief lull for some... periods of generally
light snow are expected to redevelop overnight and continue into
Thursday morning.

* Snow accumulations... an additional 1 to 2 inches over the plains
and valleys... with an additional 2 to 4 inches in the mountains.

* Impacts... visibility will be reduced to less than one mile at
times in the heaviest bands of snow. With colder air gradually
filtering in... roads will become more prone to becoming snow
covered and slushy potentially leading to slower travel at times.

Precautionary/preparedness actions...

For specific Road and travel conditions in Montana... dial 5 1 1 .



Martin